sensor_id;sensor_type;location;lat;lon;timestamp;temperature;humidity
27114;DHT22;14648;49.730;8.614;2022-09-25T00:00:41;15.40;70.80
27114;DHT22;14648;49.730;8.614;2022-09-25T00:03:12;15.40;70.80
27114;DHT22;14648;49.730;8.614;2022-09-25T00:05:40;15.40;70.80
27114;DHT22;14648;49.730;8.614;2022-09-25T00:08:09;15.40;70.80
27114;DHT22;14648;49.730;8.614;2022-09-25T00:10:40;15.40;70.80
27114;DHT22;14648;49.730;8.614;2022-09-25T00:13:07;15.40;70.90
27114;DHT22;14648;49.730;8.614;2022-09-25T00:15:33;15.40;70.80
27114;DHT22;14648;49.730;8.614;2022-09-25T00:17:59;15.40;70.80
27114;DHT22;14648;49.730;8.614;2022-09-25T00:20:25;15.40;70.80
27114;DHT22;14648;49.730;8.614;2022-09-25T00:22:51;15.40;70.80
27114;DHT22;14648;49.730;8.614;2022-09-25T00:25:18;15.40;70.80
27114;DHT22;14648;49.730;8.614;2022-09-25T00:27:45;15.40;70.90
27114;DHT22;14648;49.730;8.614;2022-09-25T00:30:15;15.40;71.00
27114;DHT22;14648;49.730;8.614;2022-09-25T00:32:41;15.40;71.00
27114;DHT22;14648;49.730;8.614;2022-09-25T00:35:07;15.40;71.00
27114;DHT22;14648;49.730;8.614;2022-09-25T00:37:34;15.40;71.10
27114;DHT22;14648;49.730;8.614;2022-09-25T00:40:00;15.40;71.10
27114;DHT22;14648;49.730;8.614;2022-09-25T00:42:26;15.40;71.10
27114;DHT22;14648;49.730;8.614;2022-09-25T00:45:08;15.40;71.90
27114;DHT22;14648;49.730;8.614;2022-09-25T00:53:09;15.40;71.20
27114;DHT22;14648;49.730;8.614;2022-09-25T00:55:40;15.40;71.20
27114;DHT22;14648;49.730;8.614;2022-09-25T00:58:07;15.40;71.10
27114;DHT22;14648;49.730;8.614;2022-09-25T01:00:33;15.40;71.10
27114;DHT22;14648;49.730;8.614;2022-09-25T01:03:00;15.40;71.10
27114;DHT22;14648;49.730;8.614;2022-09-25T01:05:35;15.40;71.20
27114;DHT22;14648;49.730;8.614;2022-09-25T01:08:04;15.40;71.20
27114;DHT22;14648;49.730;8.614;2022-09-25T01:10:31;15.50;71.20
27114;DHT22;14648;49.730;8.614;2022-09-25T01:12:59;15.40;71.10
27114;DHT22;14648;49.730;8.614;2022-09-25T01:15:59;15.40;71.20
27114;DHT22;14648;49.730;8.614;2022-09-25T01:24:15;15.30;71.40
27114;DHT22;14648;49.730;8.614;2022-09-25T01:30:11;15.30;71.60
27114;DHT22;14648;49.730;8.614;2022-09-25T01:38:32;15.30;71.60
27114;DHT22;14648;49.730;8.614;2022-09-25T01:41:21;15.30;71.60
27114;DHT22;14648;49.730;8.614;2022-09-25T01:43:59;15.20;71.40
27114;DHT22;14648;49.730;8.614;2022-09-25T01:46:33;15.30;71.60
27114;DHT22;14648;49.730;8.614;2022-09-25T01:49:07;15.30;71.70
27114;DHT22;14648;49.730;8.614;2022-09-25T01:51:44;15.30;71.80
27114;DHT22;14648;49.730;8.614;2022-09-25T01:54:34;15.20;71.70
27114;DHT22;14648;49.730;8.614;2022-09-25T01:57:21;15.20;71.70
27114;DHT22;14648;49.730;8.614;2022-09-25T02:00:13;15.20;71.80
27114;DHT22;14648;49.730;8.614;2022-09-25T02:02:48;15.20;71.80
27114;DHT22;14648;49.730;8.614;2022-09-25T02:05:30;15.20;71.80
27114;DHT22;14648;49.730;8.614;2022-09-25T02:08:02;15.20;71.60
27114;DHT22;14648;49.730;8.614;2022-09-25T02:10:36;15.10;71.80
27114;DHT22;14648;49.730;8.614;2022-09-25T02:13:12;15.10;72.10
27114;DHT22;14648;49.730;8.614;2022-09-25T02:15:43;15.20;72.00
27114;DHT22;14648;49.730;8.614;2022-09-25T02:18:16;15.10;72.00
27114;DHT22;14648;49.730;8.614;2022-09-25T02:24:19;15.10;72.10
27114;DHT22;14648;49.730;8.614;2022-09-25T02:26:48;15.10;72.10
27114;DHT22;14648;49.730;8.614;2022-09-25T02:29:15;15.10;71.90
27114;DHT22;14648;49.730;8.614;2022-09-25T02:31:53;15.10;72.00
27114;DHT22;14648;49.730;8.614;2022-09-25T02:34:21;15.10;72.20
27114;DHT22;14648;49.730;8.614;2022-09-25T02:36:47;15.10;72.20
27114;DHT22;14648;49.730;8.614;2022-09-25T02:39:20;15.00;72.10
27114;DHT22;14648;49.730;8.614;2022-09-25T02:42:16;15.00;72.30
27114;DHT22;14648;49.730;8.614;2022-09-25T02:45:07;15.00;72.40
27114;DHT22;14648;49.730;8.614;2022-09-25T02:48:22;15.00;72.30
27114;DHT22;14648;49.730;8.614;2022-09-25T02:51:13;15.00;72.40
27114;DHT22;14648;49.730;8.614;2022-09-25T02:53:51;15.00;72.00
27114;DHT22;14648;49.730;8.614;2022-09-25T02:56:25;15.00;72.10
27114;DHT22;14648;49.730;8.614;2022-09-25T02:58:58;15.00;72.20
27114;DHT22;14648;49.730;8.614;2022-09-25T03:01:30;15.00;72.30
27114;DHT22;14648;49.730;8.614;2022-09-25T03:03:58;15.00;72.40
27114;DHT22;14648;49.730;8.614;2022-09-25T03:06:24;15.00;72.40
27114;DHT22;14648;49.730;8.614;2022-09-25T03:08:53;15.00;72.40
27114;DHT22;14648;49.730;8.614;2022-09-25T03:11:22;15.00;72.50
27114;DHT22;14648;49.730;8.614;2022-09-25T03:14:02;15.00;72.50
27114;DHT22;14648;49.730;8.614;2022-09-25T03:19:12;15.00;72.70
27114;DHT22;14648;49.730;8.614;2022-09-25T03:21:39;15.00;72.50
27114;DHT22;14648;49.730;8.614;2022-09-25T03:24:05;15.00;72.60
27114;DHT22;14648;49.730;8.614;2022-09-25T03:26:31;15.00;72.70
27114;DHT22;14648;49.730;8.614;2022-09-25T03:28:57;14.90;72.70
27114;DHT22;14648;49.730;8.614;2022-09-25T03:31:27;15.00;72.70
27114;DHT22;14648;49.730;8.614;2022-09-25T03:33:54;15.00;72.70
27114;DHT22;14648;49.730;8.614;2022-09-25T03:36:22;14.90;72.80
27114;DHT22;14648;49.730;8.614;2022-09-25T03:38:51;14.90;72.80
27114;DHT22;14648;49.730;8.614;2022-09-25T03:41:20;14.90;72.90
27114;DHT22;14648;49.730;8.614;2022-09-25T03:43:48;14.90;72.90
27114;DHT22;14648;49.730;8.614;2022-09-25T03:46:20;14.90;72.90
27114;DHT22;14648;49.730;8.614;2022-09-25T03:48:48;14.90;72.90
27114;DHT22;14648;49.730;8.614;2022-09-25T03:51:13;14.90;73.00
27114;DHT22;14648;49.730;8.614;2022-09-25T03:53:40;14.90;72.90
27114;DHT22;14648;49.730;8.614;2022-09-25T03:56:09;14.90;73.00
27114;DHT22;14648;49.730;8.614;2022-09-25T03:58:36;14.90;73.00
27114;DHT22;14648;49.730;8.614;2022-09-25T04:01:03;14.80;72.90
27114;DHT22;14648;49.730;8.614;2022-09-25T04:03:31;14.90;73.00
27114;DHT22;14648;49.730;8.614;2022-09-25T04:06:00;14.80;72.90
27114;DHT22;14648;49.730;8.614;2022-09-25T04:08:29;14.90;73.00
27114;DHT22;14648;49.730;8.614;2022-09-25T04:10:56;14.90;73.00
27114;DHT22;14648;49.730;8.614;2022-09-25T04:13:25;14.90;73.10
27114;DHT22;14648;49.730;8.614;2022-09-25T04:15:54;14.80;72.90
27114;DHT22;14648;49.730;8.614;2022-09-25T04:18:22;14.80;72.90
27114;DHT22;14648;49.730;8.614;2022-09-25T04:20:49;14.90;73.00
27114;DHT22;14648;49.730;8.614;2022-09-25T04:23:15;14.80;73.10
27114;DHT22;14648;49.730;8.614;2022-09-25T04:25:41;14.80;73.10
27114;DHT22;14648;49.730;8.614;2022-09-25T04:28:06;14.80;73.90
27114;DHT22;14648;49.730;8.614;2022-09-25T04:30:33;14.90;73.20
27114;DHT22;14648;49.730;8.614;2022-09-25T04:32:58;14.90;73.20
27114;DHT22;14648;49.730;8.614;2022-09-25T04:35:43;14.80;73.20
27114;DHT22;14648;49.730;8.614;2022-09-25T04:38:09;14.80;73.10
27114;DHT22;14648;49.730;8.614;2022-09-25T04:40:35;14.90;73.30
27114;DHT22;14648;49.730;8.614;2022-09-25T04:43:03;14.80;73.20
27114;DHT22;14648;49.730;8.614;2022-09-25T04:45:33;14.80;73.30
27114;DHT22;14648;49.730;8.614;2022-09-25T04:48:00;14.80;73.30
27114;DHT22;14648;49.730;8.614;2022-09-25T04:50:27;14.80;73.50
27114;DHT22;14648;49.730;8.614;2022-09-25T04:52:55;14.80;73.50
27114;DHT22;14648;49.730;8.614;2022-09-25T04:55:22;14.80;73.40
27114;DHT22;14648;49.730;8.614;2022-09-25T04:57:53;14.80;73.50
27114;DHT22;14648;49.730;8.614;2022-09-25T05:00:20;14.80;73.60
27114;DHT22;14648;49.730;8.614;2022-09-25T05:02:47;14.80;74.30
27114;DHT22;14648;49.730;8.614;2022-09-25T05:05:13;14.80;73.50
27114;DHT22;14648;49.730;8.614;2022-09-25T05:07:49;14.80;73.50
27114;DHT22;14648;49.730;8.614;2022-09-25T05:10:20;14.80;73.60
27114;DHT22;14648;49.730;8.614;2022-09-25T05:12:47;14.80;73.60
27114;DHT22;14648;49.730;8.614;2022-09-25T05:15:13;14.80;73.60
27114;DHT22;14648;49.730;8.614;2022-09-25T05:17:39;14.80;73.60
27114;DHT22;14648;49.730;8.614;2022-09-25T05:20:05;14.80;73.70
27114;DHT22;14648;49.730;8.614;2022-09-25T05:22:31;14.80;73.70
27114;DHT22;14648;49.730;8.614;2022-09-25T05:24:57;14.80;73.70
27114;DHT22;14648;49.730;8.614;2022-09-25T05:27:22;14.80;73.70
27114;DHT22;14648;49.730;8.614;2022-09-25T05:29:48;14.80;73.70
27114;DHT22;14648;49.730;8.614;2022-09-25T05:32:14;14.80;73.70
27114;DHT22;14648;49.730;8.614;2022-09-25T05:34:40;14.80;73.80
27114;DHT22;14648;49.730;8.614;2022-09-25T05:37:06;14.80;73.90
27114;DHT22;14648;49.730;8.614;2022-09-25T05:39:32;14.80;73.90
27114;DHT22;14648;49.730;8.614;2022-09-25T05:41:57;14.80;73.90
27114;DHT22;14648;49.730;8.614;2022-09-25T05:44:23;14.80;74.00
27114;DHT22;14648;49.730;8.614;2022-09-25T05:46:53;14.80;74.10
27114;DHT22;14648;49.730;8.614;2022-09-25T05:49:21;14.80;74.10
27114;DHT22;14648;49.730;8.614;2022-09-25T05:51:48;14.80;74.10
27114;DHT22;14648;49.730;8.614;2022-09-25T05:54:13;14.80;74.10
27114;DHT22;14648;49.730;8.614;2022-09-25T05:56:39;14.80;74.10
27114;DHT22;14648;49.730;8.614;2022-09-25T05:59:05;14.80;74.10
27114;DHT22;14648;49.730;8.614;2022-09-25T06:01:30;14.80;74.20
27114;DHT22;14648;49.730;8.614;2022-09-25T06:03:56;14.70;74.30
27114;DHT22;14648;49.730;8.614;2022-09-25T06:06:22;14.70;74.30
27114;DHT22;14648;49.730;8.614;2022-09-25T06:08:47;14.70;74.30
27114;DHT22;14648;49.730;8.614;2022-09-25T06:11:13;14.80;74.40
27114;DHT22;14648;49.730;8.614;2022-09-25T06:13:39;14.80;74.50
27114;DHT22;14648;49.730;8.614;2022-09-25T06:16:13;14.70;74.60
27114;DHT22;14648;49.730;8.614;2022-09-25T06:18:42;14.70;74.70
27114;DHT22;14648;49.730;8.614;2022-09-25T06:21:08;14.70;74.70
27114;DHT22;14648;49.730;8.614;2022-09-25T06:23:34;14.70;74.70
27114;DHT22;14648;49.730;8.614;2022-09-25T06:26:01;14.70;74.80
27114;DHT22;14648;49.730;8.614;2022-09-25T06:28:27;14.80;74.90
27114;DHT22;14648;49.730;8.614;2022-09-25T06:30:54;14.70;75.00
27114;DHT22;14648;49.730;8.614;2022-09-25T06:33:20;14.70;75.00
27114;DHT22;14648;49.730;8.614;2022-09-25T06:35:46;14.80;75.10
27114;DHT22;14648;49.730;8.614;2022-09-25T06:38:13;14.70;75.10
27114;DHT22;14648;49.730;8.614;2022-09-25T06:40:40;14.70;75.10
27114;DHT22;14648;49.730;8.614;2022-09-25T06:43:09;14.80;75.10
27114;DHT22;14648;49.730;8.614;2022-09-25T06:45:36;14.80;75.20
27114;DHT22;14648;49.730;8.614;2022-09-25T06:48:10;14.70;75.20
27114;DHT22;14648;49.730;8.614;2022-09-25T06:50:47;14.70;75.20
27114;DHT22;14648;49.730;8.614;2022-09-25T06:53:18;14.70;75.30
27114;DHT22;14648;49.730;8.614;2022-09-25T06:55:44;14.70;75.20
27114;DHT22;14648;49.730;8.614;2022-09-25T06:58:19;14.70;75.20
27114;DHT22;14648;49.730;8.614;2022-09-25T07:00:48;14.70;75.50
27114;DHT22;14648;49.730;8.614;2022-09-25T07:03:15;14.70;75.50
27114;DHT22;14648;49.730;8.614;2022-09-25T07:06:02;14.70;75.60
27114;DHT22;14648;49.730;8.614;2022-09-25T07:08:29;14.70;75.60
27114;DHT22;14648;49.730;8.614;2022-09-25T07:10:56;14.70;75.60
27114;DHT22;14648;49.730;8.614;2022-09-25T07:13:25;14.70;75.70
27114;DHT22;14648;49.730;8.614;2022-09-25T07:15:56;14.70;75.70
27114;DHT22;14648;49.730;8.614;2022-09-25T07:18:27;14.70;75.70
27114;DHT22;14648;49.730;8.614;2022-09-25T07:21:02;14.70;75.80
27114;DHT22;14648;49.730;8.614;2022-09-25T07:23:30;14.80;76.00
27114;DHT22;14648;49.730;8.614;2022-09-25T07:26:18;14.80;76.00
27114;DHT22;14648;49.730;8.614;2022-09-25T07:28:56;14.70;76.20
27114;DHT22;14648;49.730;8.614;2022-09-25T07:31:26;14.70;76.10
27114;DHT22;14648;49.730;8.614;2022-09-25T07:33:57;14.80;76.10
27114;DHT22;14648;49.730;8.614;2022-09-25T07:36:34;14.80;76.10
27114;DHT22;14648;49.730;8.614;2022-09-25T07:39:01;14.80;76.20
27114;DHT22;14648;49.730;8.614;2022-09-25T07:41:26;14.80;76.20
27114;DHT22;14648;49.730;8.614;2022-09-25T07:43:56;14.80;76.10
27114;DHT22;14648;49.730;8.614;2022-09-25T07:46:23;14.80;76.00
27114;DHT22;14648;49.730;8.614;2022-09-25T07:48:49;14.80;76.00
27114;DHT22;14648;49.730;8.614;2022-09-25T07:51:18;14.70;76.00
27114;DHT22;14648;49.730;8.614;2022-09-25T07:53:46;14.80;76.10
27114;DHT22;14648;49.730;8.614;2022-09-25T07:56:12;14.70;76.20
27114;DHT22;14648;49.730;8.614;2022-09-25T07:58:39;14.80;76.20
27114;DHT22;14648;49.730;8.614;2022-09-25T08:01:07;14.70;76.20
27114;DHT22;14648;49.730;8.614;2022-09-25T08:03:35;14.70;76.30
27114;DHT22;14648;49.730;8.614;2022-09-25T08:06:06;14.80;76.30
27114;DHT22;14648;49.730;8.614;2022-09-25T08:08:38;14.80;76.50
27114;DHT22;14648;49.730;8.614;2022-09-25T08:11:13;14.80;76.40
27114;DHT22;14648;49.730;8.614;2022-09-25T08:13:41;14.80;76.40
27114;DHT22;14648;49.730;8.614;2022-09-25T08:16:09;14.90;76.40
27114;DHT22;14648;49.730;8.614;2022-09-25T08:18:42;14.80;76.30
27114;DHT22;14648;49.730;8.614;2022-09-25T08:21:11;14.80;76.40
27114;DHT22;14648;49.730;8.614;2022-09-25T08:23:39;14.80;76.40
27114;DHT22;14648;49.730;8.614;2022-09-25T08:26:08;14.80;76.40
27114;DHT22;14648;49.730;8.614;2022-09-25T08:28:33;14.90;76.60
27114;DHT22;14648;49.730;8.614;2022-09-25T08:31:00;14.80;76.40
27114;DHT22;14648;49.730;8.614;2022-09-25T08:33:28;14.80;76.30
27114;DHT22;14648;49.730;8.614;2022-09-25T08:35:57;14.80;76.40
27114;DHT22;14648;49.730;8.614;2022-09-25T08:38:25;14.90;76.60
27114;DHT22;14648;49.730;8.614;2022-09-25T08:41:01;14.80;76.70
27114;DHT22;14648;49.730;8.614;2022-09-25T08:43:29;14.80;76.80
27114;DHT22;14648;49.730;8.614;2022-09-25T08:45:58;14.90;76.90
27114;DHT22;14648;49.730;8.614;2022-09-25T08:48:53;14.80;76.90
27114;DHT22;14648;49.730;8.614;2022-09-25T08:51:44;14.90;77.00
27114;DHT22;14648;49.730;8.614;2022-09-25T08:54:19;14.90;77.00
27114;DHT22;14648;49.730;8.614;2022-09-25T08:56:54;14.90;77.00
27114;DHT22;14648;49.730;8.614;2022-09-25T08:59:36;14.90;77.00
27114;DHT22;14648;49.730;8.614;2022-09-25T09:02:19;14.90;76.90
27114;DHT22;14648;49.730;8.614;2022-09-25T09:04:57;15.00;76.90
27114;DHT22;14648;49.730;8.614;2022-09-25T09:07:37;15.00;76.80
27114;DHT22;14648;49.730;8.614;2022-09-25T09:18:25;14.90;76.70
27114;DHT22;14648;49.730;8.614;2022-09-25T09:20:57;14.90;76.70
27114;DHT22;14648;49.730;8.614;2022-09-25T09:26:52;15.00;76.70
27114;DHT22;14648;49.730;8.614;2022-09-25T09:29:37;15.00;76.80
27114;DHT22;14648;49.730;8.614;2022-09-25T09:32:55;15.00;76.60
27114;DHT22;14648;49.730;8.614;2022-09-25T09:38:30;14.90;76.60
27114;DHT22;14648;49.730;8.614;2022-09-25T09:41:22;14.90;76.60
27114;DHT22;14648;49.730;8.614;2022-09-25T09:46:59;15.00;76.70
27114;DHT22;14648;49.730;8.614;2022-09-25T09:49:50;15.00;76.60
27114;DHT22;14648;49.730;8.614;2022-09-25T09:52:21;15.00;76.60
27114;DHT22;14648;49.730;8.614;2022-09-25T09:55:18;15.00;76.60
27114;DHT22;14648;49.730;8.614;2022-09-25T09:57:54;15.00;76.60
27114;DHT22;14648;49.730;8.614;2022-09-25T10:00:23;15.00;76.60
27114;DHT22;14648;49.730;8.614;2022-09-25T10:02:59;15.00;76.60
27114;DHT22;14648;49.730;8.614;2022-09-25T10:05:36;15.00;76.80
27114;DHT22;14648;49.730;8.614;2022-09-25T10:08:08;15.10;76.90
27114;DHT22;14648;49.730;8.614;2022-09-25T10:10:40;15.10;76.80
27114;DHT22;14648;49.730;8.614;2022-09-25T10:13:29;15.10;76.90
27114;DHT22;14648;49.730;8.614;2022-09-25T10:21:22;15.20;77.00
27114;DHT22;14648;49.730;8.614;2022-09-25T10:23:54;15.20;77.00
27114;DHT22;14648;49.730;8.614;2022-09-25T10:26:38;15.20;77.00
27114;DHT22;14648;49.730;8.614;2022-09-25T10:29:25;15.20;77.10
27114;DHT22;14648;49.730;8.614;2022-09-25T10:31:58;15.20;77.20
27114;DHT22;14648;49.730;8.614;2022-09-25T10:34:26;15.30;77.20
27114;DHT22;14648;49.730;8.614;2022-09-25T10:36:54;15.30;77.00
27114;DHT22;14648;49.730;8.614;2022-09-25T10:39:32;15.30;77.00
27114;DHT22;14648;49.730;8.614;2022-09-25T10:42:00;15.20;77.00
27114;DHT22;14648;49.730;8.614;2022-09-25T10:44:34;15.30;77.00
27114;DHT22;14648;49.730;8.614;2022-09-25T10:47:27;15.30;77.10
27114;DHT22;14648;49.730;8.614;2022-09-25T10:50:24;15.30;77.30
27114;DHT22;14648;49.730;8.614;2022-09-25T10:52:55;15.30;77.30
27114;DHT22;14648;49.730;8.614;2022-09-25T10:55:27;15.30;77.20
27114;DHT22;14648;49.730;8.614;2022-09-25T11:03:53;15.50;77.50
27114;DHT22;14648;49.730;8.614;2022-09-25T11:06:26;15.50;77.40
27114;DHT22;14648;49.730;8.614;2022-09-25T11:09:04;15.50;77.30
27114;DHT22;14648;49.730;8.614;2022-09-25T11:11:35;15.50;77.40
27114;DHT22;14648;49.730;8.614;2022-09-25T11:14:04;15.60;77.40
27114;DHT22;14648;49.730;8.614;2022-09-25T11:16:58;15.60;77.60
27114;DHT22;14648;49.730;8.614;2022-09-25T11:19:29;15.70;77.80
27114;DHT22;14648;49.730;8.614;2022-09-25T11:22:22;15.70;77.80
27114;DHT22;14648;49.730;8.614;2022-09-25T11:25:14;15.80;77.80
27114;DHT22;14648;49.730;8.614;2022-09-25T11:27:57;15.80;77.40
27114;DHT22;14648;49.730;8.614;2022-09-25T11:30:32;15.80;77.40
27114;DHT22;14648;49.730;8.614;2022-09-25T11:33:25;15.80;77.50
27114;DHT22;14648;49.730;8.614;2022-09-25T11:36:26;15.80;77.40
27114;DHT22;14648;49.730;8.614;2022-09-25T11:39:01;15.80;77.20
27114;DHT22;14648;49.730;8.614;2022-09-25T11:41:58;15.80;77.20
27114;DHT22;14648;49.730;8.614;2022-09-25T11:47:24;15.90;77.30
27114;DHT22;14648;49.730;8.614;2022-09-25T11:50:12;15.90;77.30
27114;DHT22;14648;49.730;8.614;2022-09-25T11:53:02;16.00;77.10
27114;DHT22;14648;49.730;8.614;2022-09-25T11:56:00;16.00;77.20
27114;DHT22;14648;49.730;8.614;2022-09-25T11:59:01;16.00;77.00
27114;DHT22;14648;49.730;8.614;2022-09-25T12:04:37;16.10;76.90
27114;DHT22;14648;49.730;8.614;2022-09-25T12:07:45;16.10;76.70
27114;DHT22;14648;49.730;8.614;2022-09-25T12:14:06;16.10;76.50
27114;DHT22;14648;49.730;8.614;2022-09-25T12:16:58;16.00;76.00
27114;DHT22;14648;49.730;8.614;2022-09-25T12:22:26;15.80;75.80
27114;DHT22;14648;49.730;8.614;2022-09-25T12:25:24;15.70;76.00
27114;DHT22;14648;49.730;8.614;2022-09-25T12:37:33;15.60;76.20
27114;DHT22;14648;49.730;8.614;2022-09-25T12:40:47;15.60;76.30
27114;DHT22;14648;49.730;8.614;2022-09-25T12:43:23;15.60;76.30
27114;DHT22;14648;49.730;8.614;2022-09-25T12:46:10;15.60;76.30
27114;DHT22;14648;49.730;8.614;2022-09-25T12:48:52;15.50;76.30
27114;DHT22;14648;49.730;8.614;2022-09-25T12:51:46;15.50;76.20
27114;DHT22;14648;49.730;8.614;2022-09-25T12:57:01;15.40;76.10
27114;DHT22;14648;49.730;8.614;2022-09-25T12:59:51;15.40;76.40
27114;DHT22;14648;49.730;8.614;2022-09-25T13:08:07;15.30;76.10
27114;DHT22;14648;49.730;8.614;2022-09-25T13:11:01;15.30;76.00
27114;DHT22;14648;49.730;8.614;2022-09-25T13:13:40;15.20;76.00
27114;DHT22;14648;49.730;8.614;2022-09-25T13:16:10;15.20;75.90
27114;DHT22;14648;49.730;8.614;2022-09-25T13:18:45;15.10;75.90
27114;DHT22;14648;49.730;8.614;2022-09-25T13:21:35;15.10;76.00
27114;DHT22;14648;49.730;8.614;2022-09-25T13:24:11;15.10;76.00
27114;DHT22;14648;49.730;8.614;2022-09-25T13:26:50;15.10;75.90
27114;DHT22;14648;49.730;8.614;2022-09-25T13:29:33;15.10;75.80
27114;DHT22;14648;49.730;8.614;2022-09-25T13:32:21;15.10;75.70
27114;DHT22;14648;49.730;8.614;2022-09-25T13:34:54;15.10;75.60
27114;DHT22;14648;49.730;8.614;2022-09-25T13:37:26;15.10;75.60
27114;DHT22;14648;49.730;8.614;2022-09-25T13:39:54;15.10;75.40
27114;DHT22;14648;49.730;8.614;2022-09-25T13:42:43;15.10;76.00
27114;DHT22;14648;49.730;8.614;2022-09-25T13:48:08;15.00;75.20
27114;DHT22;14648;49.730;8.614;2022-09-25T13:50:46;15.00;75.10
27114;DHT22;14648;49.730;8.614;2022-09-25T13:53:24;15.00;75.00
27114;DHT22;14648;49.730;8.614;2022-09-25T13:58:21;15.00;74.90
27114;DHT22;14648;49.730;8.614;2022-09-25T14:00:57;15.00;74.80
27114;DHT22;14648;49.730;8.614;2022-09-25T14:06:19;15.00;74.70
27114;DHT22;14648;49.730;8.614;2022-09-25T14:08:48;15.00;74.50
27114;DHT22;14648;49.730;8.614;2022-09-25T14:11:18;14.90;74.50
27114;DHT22;14648;49.730;8.614;2022-09-25T14:13:59;14.90;74.50
27114;DHT22;14648;49.730;8.614;2022-09-25T14:16:30;14.90;74.60
27114;DHT22;14648;49.730;8.614;2022-09-25T14:18:58;14.90;74.50
27114;DHT22;14648;49.730;8.614;2022-09-25T14:21:25;14.90;74.40
27114;DHT22;14648;49.730;8.614;2022-09-25T14:23:55;14.80;74.20
27114;DHT22;14648;49.730;8.614;2022-09-25T14:26:26;14.80;74.30
27114;DHT22;14648;49.730;8.614;2022-09-25T14:28:54;14.80;74.20
27114;DHT22;14648;49.730;8.614;2022-09-25T14:31:48;14.90;74.20
27114;DHT22;14648;49.730;8.614;2022-09-25T14:34:48;14.80;73.90
27114;DHT22;14648;49.730;8.614;2022-09-25T14:40:27;14.80;73.80
27114;DHT22;14648;49.730;8.614;2022-09-25T14:46:06;14.80;73.70
27114;DHT22;14648;49.730;8.614;2022-09-25T14:48:41;14.80;73.60
27114;DHT22;14648;49.730;8.614;2022-09-25T14:51:20;14.80;73.60
27114;DHT22;14648;49.730;8.614;2022-09-25T14:53:54;14.80;73.70
27114;DHT22;14648;49.730;8.614;2022-09-25T14:56:24;14.80;73.80
27114;DHT22;14648;49.730;8.614;2022-09-25T14:58:53;14.80;73.90
27114;DHT22;14648;49.730;8.614;2022-09-25T15:01:23;14.90;74.00
27114;DHT22;14648;49.730;8.614;2022-09-25T15:03:58;14.90;73.80
27114;DHT22;14648;49.730;8.614;2022-09-25T15:06:38;15.00;73.90
27114;DHT22;14648;49.730;8.614;2022-09-25T15:09:30;15.00;73.90
27114;DHT22;14648;49.730;8.614;2022-09-25T15:12:14;15.10;73.90
27114;DHT22;14648;49.730;8.614;2022-09-25T15:17:36;15.20;73.40
27114;DHT22;14648;49.730;8.614;2022-09-25T15:20:15;15.20;73.20
27114;DHT22;14648;49.730;8.614;2022-09-25T15:23:12;15.20;73.10
27114;DHT22;14648;49.730;8.614;2022-09-25T15:25:41;15.20;72.90
27114;DHT22;14648;49.730;8.614;2022-09-25T15:28:15;15.20;72.80
27114;DHT22;14648;49.730;8.614;2022-09-25T15:30:42;15.20;72.70
27114;DHT22;14648;49.730;8.614;2022-09-25T15:33:30;15.20;72.60
27114;DHT22;14648;49.730;8.614;2022-09-25T15:36:00;15.20;72.50
27114;DHT22;14648;49.730;8.614;2022-09-25T15:39:02;15.10;72.50
27114;DHT22;14648;49.730;8.614;2022-09-25T15:41:37;15.10;72.60
27114;DHT22;14648;49.730;8.614;2022-09-25T15:44:22;15.10;72.50
27114;DHT22;14648;49.730;8.614;2022-09-25T15:46:54;15.10;72.50
27114;DHT22;14648;49.730;8.614;2022-09-25T15:49:33;15.10;72.40
27114;DHT22;14648;49.730;8.614;2022-09-25T15:52:04;15.10;72.40
27114;DHT22;14648;49.730;8.614;2022-09-25T15:54:38;15.10;72.50
27114;DHT22;14648;49.730;8.614;2022-09-25T15:57:14;15.10;72.50
27114;DHT22;14648;49.730;8.614;2022-09-25T16:02:28;15.10;72.30
27114;DHT22;14648;49.730;8.614;2022-09-25T16:05:15;15.10;72.30
27114;DHT22;14648;49.730;8.614;2022-09-25T16:07:46;15.10;72.30
27114;DHT22;14648;49.730;8.614;2022-09-25T16:17:56;15.10;72.20
27114;DHT22;14648;49.730;8.614;2022-09-25T16:20:45;15.10;72.20
27114;DHT22;14648;49.730;8.614;2022-09-25T16:23:28;15.10;72.20
27114;DHT22;14648;49.730;8.614;2022-09-25T16:25:55;15.10;72.40
27114;DHT22;14648;49.730;8.614;2022-09-25T16:28:30;15.10;72.30
27114;DHT22;14648;49.730;8.614;2022-09-25T16:31:03;15.10;72.50
27114;DHT22;14648;49.730;8.614;2022-09-25T16:33:48;15.10;72.50
27114;DHT22;14648;49.730;8.614;2022-09-25T16:36:16;15.20;73.20
27114;DHT22;14648;49.730;8.614;2022-09-25T16:41:35;15.20;72.70
27114;DHT22;14648;49.730;8.614;2022-09-25T16:44:13;15.20;72.70
27114;DHT22;14648;49.730;8.614;2022-09-25T16:46:46;15.20;72.70
27114;DHT22;14648;49.730;8.614;2022-09-25T16:49:31;15.20;72.70
27114;DHT22;14648;49.730;8.614;2022-09-25T16:51:59;15.20;72.70
27114;DHT22;14648;49.730;8.614;2022-09-25T16:54:30;15.20;72.70
27114;DHT22;14648;49.730;8.614;2022-09-25T16:56:58;15.20;72.70
27114;DHT22;14648;49.730;8.614;2022-09-25T16:59:25;15.20;72.70
27114;DHT22;14648;49.730;8.614;2022-09-25T17:01:56;15.20;72.70
27114;DHT22;14648;49.730;8.614;2022-09-25T17:04:27;15.20;72.70
27114;DHT22;14648;49.730;8.614;2022-09-25T17:06:55;15.20;72.70
27114;DHT22;14648;49.730;8.614;2022-09-25T17:09:25;15.20;72.70
27114;DHT22;14648;49.730;8.614;2022-09-25T17:12:02;15.20;72.70
27114;DHT22;14648;49.730;8.614;2022-09-25T17:14:32;15.10;72.80
27114;DHT22;14648;49.730;8.614;2022-09-25T17:16:58;15.10;72.70
27114;DHT22;14648;49.730;8.614;2022-09-25T17:19:24;15.10;72.90
27114;DHT22;14648;49.730;8.614;2022-09-25T17:21:52;15.00;72.80
27114;DHT22;14648;49.730;8.614;2022-09-25T17:24:21;15.10;74.00
27114;DHT22;14648;49.730;8.614;2022-09-25T17:26:48;15.00;73.40
27114;DHT22;14648;49.730;8.614;2022-09-25T17:29:18;15.00;73.30
27114;DHT22;14648;49.730;8.614;2022-09-25T17:31:44;15.00;73.30
27114;DHT22;14648;49.730;8.614;2022-09-25T17:34:21;15.00;73.30
27114;DHT22;14648;49.730;8.614;2022-09-25T17:36:53;14.90;74.10
27114;DHT22;14648;49.730;8.614;2022-09-25T17:39:19;14.90;73.20
27114;DHT22;14648;49.730;8.614;2022-09-25T17:41:45;14.90;73.20
27114;DHT22;14648;49.730;8.614;2022-09-25T17:44:15;14.90;73.10
27114;DHT22;14648;49.730;8.614;2022-09-25T17:46:43;14.90;73.20
27114;DHT22;14648;49.730;8.614;2022-09-25T17:49:09;14.80;73.00
27114;DHT22;14648;49.730;8.614;2022-09-25T17:51:36;14.80;73.00
27114;DHT22;14648;49.730;8.614;2022-09-25T17:54:03;14.80;73.00
27114;DHT22;14648;49.730;8.614;2022-09-25T17:56:31;14.80;73.00
27114;DHT22;14648;49.730;8.614;2022-09-25T17:58:59;14.80;73.10
27114;DHT22;14648;49.730;8.614;2022-09-25T18:01:30;14.80;73.10
27114;DHT22;14648;49.730;8.614;2022-09-25T18:03:58;14.80;73.10
27114;DHT22;14648;49.730;8.614;2022-09-25T18:06:27;14.80;73.00